createdAt,value
2019-03-19T00:00:38.342Z,77.44
2019-03-19T00:03:05.036Z,77.63
2019-03-19T00:05:31.627Z,77.21
2019-03-19T00:07:58.298Z,78.07
2019-03-19T00:10:25.129Z,77.96
2019-03-19T00:12:51.822Z,78.25
2019-03-19T00:15:18.472Z,78.40
2019-03-19T00:17:45.108Z,78.66
2019-03-19T00:20:11.868Z,78.81
2019-03-19T00:22:38.606Z,79.25
2019-03-19T00:25:05.390Z,79.52
2019-03-19T00:27:32.413Z,79.69
2019-03-19T00:29:58.983Z,80.07
2019-03-19T00:32:25.615Z,80.72
2019-03-19T00:34:52.433Z,80.86
2019-03-19T00:37:19.077Z,80.96
2019-03-19T00:39:45.841Z,81.67
2019-03-19T00:42:12.493Z,81.50
2019-03-19T00:44:39.175Z,81.79
2019-03-19T00:47:05.719Z,81.84
2019-03-19T00:49:32.459Z,82.03
2019-03-19T00:51:59.003Z,82.35
2019-03-19T00:54:25.631Z,82.41
2019-03-19T00:56:52.306Z,82.08
2019-03-19T00:59:18.834Z,82.29
2019-03-19T01:01:45.661Z,82.37
2019-03-19T01:04:12.298Z,82.75
2019-03-19T01:06:38.983Z,82.22
2019-03-19T01:09:05.948Z,82.00
2019-03-19T01:11:32.662Z,82.31
2019-03-19T01:13:59.296Z,82.12
2019-03-19T01:16:25.862Z,82.60
2019-03-19T01:18:52.402Z,82.29
2019-03-19T01:21:19.049Z,82.30
2019-03-19T01:23:45.761Z,82.35
2019-03-19T01:26:12.315Z,82.70
2019-03-19T01:28:39.016Z,82.97
2019-03-19T01:31:05.883Z,82.85
2019-03-19T01:33:32.566Z,82.82
2019-03-19T01:35:59.204Z,83.34
2019-03-19T01:38:26.016Z,83.59
2019-03-19T01:40:52.566Z,83.36
2019-03-19T01:43:19.113Z,83.50
2019-03-19T01:45:45.995Z,83.46
2019-03-19T01:48:12.715Z,83.74
2019-03-19T01:50:39.364Z,83.83
2019-03-19T01:53:06.002Z,84.25
2019-03-19T01:55:32.678Z,84.17
2019-03-19T01:57:59.219Z,84.25
2019-03-19T02:00:25.860Z,84.25
2019-03-19T02:02:52.466Z,84.46
2019-03-19T02:05:19.108Z,84.53
2019-03-19T02:07:45.645Z,84.40
2019-03-19T02:10:12.591Z,84.65
2019-03-19T02:12:39.575Z,84.96
2019-03-19T02:15:07.674Z,85.19
2019-03-19T02:17:34.305Z,85.40
2019-03-19T02:20:00.917Z,85.31
2019-03-19T02:22:27.576Z,85.68
2019-03-19T02:24:54.253Z,85.55
2019-03-19T02:27:20.803Z,85.80
2019-03-19T02:29:47.357Z,86.37
2019-03-19T02:32:13.917Z,86.50
2019-03-19T02:34:40.664Z,87.03
2019-03-19T02:37:07.391Z,86.77
2019-03-19T02:39:33.949Z,86.57
2019-03-19T02:42:00.851Z,86.60
2019-03-19T02:44:27.517Z,86.15
2019-03-19T02:46:54.224Z,86.45
2019-03-19T02:49:21.019Z,86.35
2019-03-19T02:51:47.553Z,86.21
2019-03-19T02:54:14.255Z,86.27
2019-03-19T02:56:40.886Z,86.57
2019-03-19T02:59:07.486Z,86.61
2019-03-19T03:01:34.046Z,87.11
2019-03-19T03:04:00.702Z,87.20
2019-03-19T03:06:27.234Z,87.28
2019-03-19T03:08:53.904Z,86.98
2019-03-19T03:11:20.531Z,86.89
2019-03-19T03:13:47.153Z,87.09
2019-03-19T03:16:13.689Z,87.11
2019-03-19T03:18:40.393Z,87.26
2019-03-19T03:21:07.018Z,87.36
2019-03-19T03:23:33.712Z,87.24
2019-03-19T03:26:00.313Z,87.39
2019-03-19T03:28:26.878Z,87.39
2019-03-19T03:30:53.768Z,87.42
2019-03-19T03:33:21.522Z,87.42
2019-03-19T03:35:48.164Z,87.59
2019-03-19T03:38:14.924Z,87.47
2019-03-19T03:40:41.606Z,87.43
2019-03-19T03:43:08.381Z,87.26
2019-03-19T03:45:35.103Z,87.23
2019-03-19T03:48:01.643Z,86.91
2019-03-19T03:50:28.177Z,86.84
2019-03-19T03:52:54.890Z,86.57
2019-03-19T03:55:21.634Z,86.26
2019-03-19T03:57:48.358Z,86.29
2019-03-19T04:00:15.199Z,85.93
2019-03-19T04:02:44.575Z,85.95
2019-03-19T04:05:10.473Z,85.81
2019-03-19T04:07:37.167Z,86.01
2019-03-19T04:10:04.241Z,86.01
2019-03-19T04:12:30.788Z,86.25
2019-03-19T04:14:57.457Z,86.10
2019-03-19T04:17:23.971Z,86.37
2019-03-19T04:19:50.645Z,86.27
2019-03-19T04:22:17.360Z,86.18
2019-03-19T04:24:44.133Z,85.95
2019-03-19T04:27:16.454Z,85.81
2019-03-19T04:29:39.377Z,85.78
2019-03-19T04:32:06.075Z,85.89
2019-03-19T04:34:33.620Z,86.25
2019-03-19T04:37:00.308Z,86.15
2019-03-19T04:39:26.979Z,86.00
2019-03-19T04:41:53.529Z,85.92
2019-03-19T04:44:20.081Z,85.93
2019-03-19T04:46:46.703Z,85.84
2019-03-19T04:49:13.396Z,85.82
2019-03-19T04:51:39.979Z,85.80
2019-03-19T04:54:06.658Z,85.70
2019-03-19T04:56:33.341Z,85.64
2019-03-19T04:59:00.103Z,85.61
2019-03-19T05:01:26.864Z,85.45
2019-03-19T05:03:54.596Z,85.32
2019-03-19T05:06:21.350Z,85.17
2019-03-19T05:08:48.238Z,85.12
2019-03-19T05:11:15.024Z,85.08
2019-03-19T05:13:43.739Z,84.98
2019-03-19T05:16:10.671Z,84.93
2019-03-19T05:18:38.346Z,85.03
2019-03-19T05:21:04.964Z,85.25
2019-03-19T05:23:31.662Z,85.47
2019-03-19T05:25:58.433Z,85.46
2019-03-19T05:28:25.100Z,85.41
2019-03-19T05:30:51.772Z,85.40
2019-03-19T05:33:19.552Z,85.37
2019-03-19T05:35:46.458Z,85.32
2019-03-19T05:38:13.000Z,85.33
2019-03-19T05:40:39.653Z,85.38
2019-03-19T05:43:06.444Z,85.49
2019-03-19T05:45:33.271Z,85.41
2019-03-19T05:48:00.070Z,85.29
2019-03-19T05:50:26.632Z,85.43
2019-03-19T05:52:53.615Z,85.28
2019-03-19T05:55:20.282Z,84.91
2019-03-19T05:57:49.934Z,84.78
2019-03-19T06:00:16.202Z,84.75
2019-03-19T06:02:43.027Z,84.75
2019-03-19T06:05:09.883Z,84.62
2019-03-19T06:07:36.601Z,84.39
2019-03-19T06:10:03.721Z,84.18
2019-03-19T06:12:30.602Z,83.96
2019-03-19T06:14:57.421Z,83.87
2019-03-19T06:17:24.334Z,83.96
2019-03-19T06:19:50.860Z,84.16
2019-03-19T06:22:17.388Z,84.40
2019-03-19T06:24:43.941Z,84.54
2019-03-19T06:27:10.645Z,84.54
2019-03-19T06:29:37.210Z,84.43
2019-03-19T06:32:03.827Z,84.25
2019-03-19T06:34:30.559Z,84.18
2019-03-19T06:36:57.091Z,84.05
2019-03-19T06:39:23.808Z,82.85
2019-03-19T06:41:50.335Z,82.10
2019-03-19T06:44:17.029Z,81.33
2019-03-19T06:46:43.698Z,81.02
2019-03-19T06:49:10.268Z,80.10
2019-03-19T06:51:36.959Z,79.78
2019-03-19T06:54:03.685Z,78.64
2019-03-19T06:56:30.283Z,78.12
2019-03-19T06:58:57.333Z,77.24
2019-03-19T07:01:24.192Z,76.87
2019-03-19T07:03:50.832Z,76.59
2019-03-19T07:06:17.816Z,74.96
2019-03-19T07:08:44.488Z,75.31
2019-03-19T07:11:11.127Z,75.36
2019-03-19T07:13:38.700Z,74.51
2019-03-19T07:16:05.235Z,74.09
2019-03-19T07:18:33.842Z,73.05
2019-03-19T07:21:00.680Z,72.56
2019-03-19T07:23:27.202Z,71.98
2019-03-19T07:25:53.775Z,71.46
2019-03-19T07:28:22.271Z,71.04
2019-03-19T07:30:49.128Z,70.81
2019-03-19T07:33:15.698Z,70.09
2019-03-19T07:35:42.331Z,69.98
2019-03-19T07:38:09.095Z,69.58
2019-03-19T07:40:35.863Z,69.77
2019-03-19T07:43:02.664Z,69.02
2019-03-19T07:45:29.494Z,68.68
2019-03-19T07:47:56.182Z,68.29
2019-03-19T07:50:22.835Z,68.89
2019-03-19T07:52:49.365Z,68.81
2019-03-19T07:55:16.352Z,69.03
2019-03-19T07:57:43.281Z,68.39
2019-03-19T08:00:11.765Z,66.78
2019-03-19T08:02:38.633Z,67.72
2019-03-19T08:05:06.372Z,67.13
2019-03-19T08:07:33.039Z,66.82
2019-03-19T08:09:59.682Z,65.92
2019-03-19T08:12:26.551Z,66.52
2019-03-19T08:14:53.141Z,60.70
2019-03-19T08:17:19.959Z,55.83
2019-03-19T08:19:46.511Z,52.33
2019-03-19T08:22:13.120Z,48.01
2019-03-19T08:24:39.707Z,44.44
2019-03-19T08:27:06.607Z,41.00
2019-03-19T08:29:34.752Z,41.61
2019-03-19T08:32:01.649Z,40.21
2019-03-19T08:34:28.180Z,36.86
2019-03-19T08:36:54.767Z,35.88
2019-03-19T08:39:21.306Z,35.61
2019-03-19T08:41:48.053Z,32.36
2019-03-19T08:44:14.699Z,32.75
2019-03-19T08:46:42.907Z,29.84
2019-03-19T08:49:09.808Z,30.67
2019-03-19T08:51:36.407Z,30.56
2019-03-19T08:54:03.214Z,29.58
2019-03-19T08:56:29.910Z,29.66
2019-03-19T08:59:05.575Z,28.55
2019-03-19T09:01:25.400Z,29.04
2019-03-19T09:03:52.089Z,28.07
2019-03-19T09:06:18.735Z,28.91
2019-03-19T09:08:45.367Z,30.54
2019-03-19T09:11:12.058Z,31.47
2019-03-19T09:13:38.680Z,31.88
2019-03-19T09:16:05.450Z,29.57
2019-03-19T09:18:32.275Z,29.52
2019-03-19T09:20:59.893Z,29.82
2019-03-19T09:23:26.580Z,31.50
2019-03-19T09:25:53.445Z,32.23
2019-03-19T09:28:20.094Z,32.94
2019-03-19T09:30:47.010Z,34.20
2019-03-19T09:33:13.572Z,33.94
2019-03-19T09:35:40.217Z,35.79
2019-03-19T09:38:07.185Z,36.63
2019-03-19T09:40:33.824Z,37.22
2019-03-19T09:43:00.582Z,39.09
2019-03-19T09:45:27.261Z,38.41
2019-03-19T09:47:53.905Z,39.70
2019-03-19T09:50:20.827Z,38.36
2019-03-19T09:52:47.732Z,39.55
2019-03-19T09:55:14.401Z,41.53
2019-03-19T09:57:41.302Z,41.48
2019-03-19T10:00:11.025Z,42.13
2019-03-19T10:02:37.646Z,43.88
2019-03-19T10:05:04.526Z,46.02
2019-03-19T10:07:31.051Z,47.56
2019-03-19T10:09:57.643Z,47.34
2019-03-19T10:12:24.296Z,48.40
2019-03-19T10:14:51.032Z,48.24
2019-03-19T10:17:17.754Z,48.63
2019-03-19T10:19:44.342Z,50.24
2019-03-19T10:22:11.514Z,51.44
2019-03-19T10:24:38.166Z,50.52
2019-03-19T10:27:04.749Z,50.91
2019-03-19T10:29:38.285Z,52.08
2019-03-19T10:31:59.930Z,52.54
2019-03-19T10:34:26.549Z,51.48
2019-03-19T10:36:53.254Z,52.14
2019-03-19T10:39:19.930Z,51.36
2019-03-19T10:41:46.651Z,50.95
2019-03-19T10:44:13.253Z,50.36
2019-03-19T10:46:40.013Z,49.54
2019-03-19T10:49:06.767Z,48.60
2019-03-19T10:51:35.182Z,45.66
2019-03-19T10:54:02.128Z,46.64
2019-03-19T10:56:29.421Z,42.66
2019-03-19T10:58:56.187Z,39.54
2019-03-19T11:01:22.920Z,37.33
2019-03-19T11:03:49.680Z,36.74
2019-03-19T11:06:16.336Z,35.79
2019-03-19T11:08:42.988Z,38.75
2019-03-19T11:11:09.873Z,40.38
2019-03-19T11:13:36.434Z,39.25
2019-03-19T11:16:03.546Z,41.00
2019-03-19T11:18:30.337Z,40.52
2019-03-19T11:20:56.991Z,41.63
2019-03-19T11:23:23.850Z,42.78
2019-03-19T11:25:54.731Z,42.89
2019-03-19T11:28:20.086Z,42.52
2019-03-19T11:30:47.335Z,43.19
2019-03-19T11:33:14.051Z,44.24
2019-03-19T11:35:40.781Z,44.53
2019-03-19T11:38:07.789Z,44.58
2019-03-19T11:40:34.429Z,44.93
2019-03-19T11:43:01.102Z,44.70
2019-03-19T11:45:27.956Z,42.94
2019-03-19T11:47:55.201Z,42.90
2019-03-19T11:50:22.383Z,43.47
2019-03-19T11:52:49.397Z,42.95
2019-03-19T11:55:16.331Z,42.73
2019-03-19T11:57:43.018Z,40.43
2019-03-19T12:00:16.446Z,38.57
2019-03-19T12:02:43.086Z,37.47
2019-03-19T12:05:10.714Z,37.63
2019-03-19T12:07:37.532Z,38.72
2019-03-19T12:10:04.604Z,38.73
2019-03-19T12:12:31.260Z,40.76
2019-03-19T12:14:57.998Z,41.59
2019-03-19T12:17:24.874Z,42.01
2019-03-19T12:19:51.425Z,43.18
2019-03-19T12:22:18.253Z,42.93
2019-03-19T12:24:44.820Z,43.05
2019-03-19T12:27:11.501Z,41.42
2019-03-19T12:29:38.350Z,42.37
2019-03-19T12:32:04.984Z,40.99
2019-03-19T12:34:31.864Z,41.70
2019-03-19T12:36:58.493Z,41.69
2019-03-19T12:39:25.160Z,40.73
2019-03-19T12:41:51.793Z,39.41
2019-03-19T12:44:18.366Z,40.07
2019-03-19T12:46:45.000Z,41.14
2019-03-19T12:49:11.641Z,38.56
2019-03-19T12:51:38.261Z,36.94
2019-03-19T12:54:04.891Z,36.68
2019-03-19T12:56:31.594Z,35.40
2019-03-19T12:58:58.116Z,36.68
2019-03-19T13:01:24.989Z,35.58
2019-03-19T13:03:51.688Z,36.49
2019-03-19T13:06:18.246Z,37.49
2019-03-19T13:08:44.856Z,37.69
2019-03-19T13:11:11.620Z,38.21
2019-03-19T13:13:40.824Z,36.91
2019-03-19T13:16:06.836Z,38.31
2019-03-19T13:18:33.448Z,36.14
2019-03-19T13:21:00.054Z,37.94
2019-03-19T13:23:26.505Z,38.10
2019-03-19T13:25:53.254Z,39.03
2019-03-19T13:28:20.882Z,38.84
2019-03-19T13:30:47.474Z,39.32
2019-03-19T13:33:13.993Z,39.57
2019-03-19T13:35:40.647Z,40.70
2019-03-19T13:38:07.207Z,40.22
2019-03-19T13:40:33.861Z,38.90
2019-03-19T13:43:00.451Z,41.08
2019-03-19T13:45:27.082Z,39.74
2019-03-19T13:47:53.813Z,37.30
2019-03-19T13:50:20.786Z,35.75
2019-03-19T13:52:47.559Z,35.03
2019-03-19T13:55:14.573Z,34.90
2019-03-19T13:57:41.209Z,34.00
2019-03-19T14:00:08.741Z,34.52
2019-03-19T14:02:35.383Z,34.92
2019-03-19T14:05:01.927Z,36.85
2019-03-19T14:07:28.552Z,35.46
2019-03-19T14:09:55.092Z,37.59
2019-03-19T14:12:21.911Z,37.36
2019-03-19T14:14:48.425Z,37.42
2019-03-19T14:17:15.076Z,38.01
2019-03-19T14:19:41.608Z,39.82
2019-03-19T14:22:08.291Z,38.95
2019-03-19T14:24:34.896Z,39.20
2019-03-19T14:27:01.439Z,37.48
2019-03-19T14:29:28.068Z,36.88
2019-03-19T14:31:54.738Z,37.47
2019-03-19T14:34:21.436Z,38.10
2019-03-19T14:36:47.927Z,37.63
2019-03-19T14:39:14.598Z,37.00
2019-03-19T14:41:41.225Z,34.91
2019-03-19T14:44:07.903Z,34.08
2019-03-19T14:46:34.548Z,33.23
2019-03-19T14:49:01.186Z,34.90
2019-03-19T14:51:27.973Z,35.05
2019-03-19T14:53:54.503Z,35.96
2019-03-19T14:56:21.030Z,35.58
2019-03-19T14:58:47.555Z,36.67
2019-03-19T15:01:19.292Z,37.19
2019-03-19T15:03:42.609Z,37.42
2019-03-19T15:06:09.300Z,37.29
2019-03-19T15:08:35.938Z,38.81
2019-03-19T15:11:02.477Z,39.39
2019-03-19T15:13:29.217Z,39.20
2019-03-19T15:15:55.753Z,39.29
2019-03-19T15:18:22.495Z,40.27
2019-03-19T15:20:49.157Z,40.70
2019-03-19T15:23:15.669Z,41.18
2019-03-19T15:25:42.355Z,41.39
2019-03-19T15:28:08.906Z,41.56
2019-03-19T15:30:35.466Z,40.37
2019-03-19T15:33:02.044Z,39.89
2019-03-19T15:35:28.798Z,40.66
2019-03-19T15:37:55.518Z,40.83
2019-03-19T15:40:22.225Z,42.70
2019-03-19T15:42:48.798Z,42.22
2019-03-19T15:45:15.488Z,42.13
2019-03-19T15:47:42.344Z,40.96
2019-03-19T15:50:10.834Z,41.68
2019-03-19T15:52:37.478Z,40.27
2019-03-19T15:55:04.312Z,41.23
2019-03-19T15:57:31.312Z,41.49
2019-03-19T15:59:58.215Z,41.40
2019-03-19T16:02:25.010Z,41.61
2019-03-19T16:04:51.939Z,42.58
2019-03-19T16:07:19.028Z,41.56
2019-03-19T16:09:45.581Z,41.48
2019-03-19T16:12:12.303Z,41.19
2019-03-19T16:14:38.841Z,42.71
2019-03-19T16:17:05.672Z,42.64
2019-03-19T16:19:33.479Z,42.81
2019-03-19T16:22:00.100Z,41.81
2019-03-19T16:24:26.699Z,42.00
2019-03-19T16:26:53.235Z,41.72
2019-03-19T16:29:19.928Z,42.57
2019-03-19T16:31:50.904Z,42.34
2019-03-19T16:34:15.203Z,42.44
2019-03-19T16:36:41.763Z,43.07
2019-03-19T16:39:08.523Z,43.51
2019-03-19T16:41:35.156Z,43.66
2019-03-19T16:44:01.690Z,44.42
2019-03-19T16:46:28.238Z,44.67
2019-03-19T16:48:54.952Z,45.38
2019-03-19T16:51:21.613Z,44.71
2019-03-19T16:53:48.487Z,45.17
2019-03-19T16:56:15.215Z,44.83
2019-03-19T16:58:42.060Z,45.09
2019-03-19T17:01:08.618Z,44.98
2019-03-19T17:03:36.480Z,45.90
2019-03-19T17:06:03.266Z,46.22
2019-03-19T17:08:29.917Z,46.67
2019-03-19T17:10:56.741Z,46.74
2019-03-19T17:13:23.487Z,46.74
2019-03-19T17:15:50.166Z,47.90
2019-03-19T17:18:17.015Z,47.43
2019-03-19T17:20:43.733Z,48.12
2019-03-19T17:23:11.621Z,49.18
2019-03-19T17:25:38.455Z,47.99
2019-03-19T17:28:05.157Z,47.96
2019-03-19T17:30:32.066Z,48.47
2019-03-19T17:32:58.739Z,48.75
2019-03-19T17:35:31.501Z,49.18
2019-03-19T17:37:58.145Z,48.65
2019-03-19T17:40:24.834Z,49.08
2019-03-19T17:42:51.756Z,48.97
2019-03-19T17:45:18.675Z,49.63
2019-03-19T17:47:45.645Z,49.47
2019-03-19T17:50:14.492Z,50.60
2019-03-19T17:52:41.486Z,49.79
2019-03-19T17:55:09.370Z,50.00
2019-03-19T17:57:36.155Z,50.23
2019-03-19T18:00:04.171Z,49.68
2019-03-19T18:02:31.072Z,50.60
2019-03-19T18:04:57.881Z,50.29
2019-03-19T18:07:24.545Z,51.36
2019-03-19T18:09:51.299Z,51.46
2019-03-19T18:12:17.894Z,50.41
2019-03-19T18:14:44.453Z,50.94
2019-03-19T18:17:11.414Z,51.51
2019-03-19T18:19:38.082Z,50.33
2019-03-19T18:22:04.896Z,50.91
2019-03-19T18:24:31.622Z,50.85
2019-03-19T18:26:58.374Z,52.16
2019-03-19T18:29:26.318Z,52.39
2019-03-19T18:31:54.029Z,52.06
2019-03-19T18:34:20.699Z,52.07
2019-03-19T18:36:47.550Z,52.40
2019-03-19T18:39:14.315Z,52.33
2019-03-19T18:41:41.194Z,51.31
2019-03-19T18:44:08.004Z,53.19
2019-03-19T18:46:34.723Z,52.55
2019-03-19T18:49:01.444Z,51.99
2019-03-19T18:51:28.221Z,52.63
2019-03-19T18:53:55.023Z,52.89
2019-03-19T18:56:21.725Z,53.80
2019-03-19T18:58:51.241Z,53.16
2019-03-19T19:01:18.035Z,54.26
2019-03-19T19:03:44.712Z,54.84
2019-03-19T19:06:11.293Z,54.67
2019-03-19T19:08:37.961Z,54.48
2019-03-19T19:11:05.040Z,55.68
2019-03-19T19:13:31.814Z,55.46
2019-03-19T19:15:58.587Z,55.95
2019-03-19T19:18:25.465Z,55.18
2019-03-19T19:20:52.431Z,55.27
2019-03-19T19:23:19.272Z,55.82
2019-03-19T19:25:46.241Z,55.54
2019-03-19T19:28:13.921Z,55.76
2019-03-19T19:30:40.544Z,55.86
2019-03-19T19:33:07.373Z,55.72
2019-03-19T19:35:35.138Z,56.09
2019-03-19T19:38:03.339Z,55.90
2019-03-19T19:40:30.451Z,55.88
2019-03-19T19:42:57.181Z,55.74
2019-03-19T19:45:23.862Z,56.45
2019-03-19T19:47:50.463Z,57.16
2019-03-19T19:50:17.167Z,56.35
2019-03-19T19:52:43.980Z,57.08
2019-03-19T19:55:10.835Z,57.09
2019-03-19T19:57:37.611Z,56.80
2019-03-19T20:00:04.913Z,56.87
2019-03-19T20:02:31.543Z,57.04
2019-03-19T20:05:02.921Z,57.30
2019-03-19T20:07:27.135Z,56.87
2019-03-19T20:09:53.688Z,58.49
2019-03-19T20:12:20.392Z,58.30
2019-03-19T20:14:47.240Z,57.75
2019-03-19T20:17:13.994Z,57.75
2019-03-19T20:19:40.558Z,57.84
2019-03-19T20:22:07.158Z,57.82
2019-03-19T20:24:33.906Z,57.62
2019-03-19T20:27:00.568Z,57.90
2019-03-19T20:29:27.414Z,58.48
2019-03-19T20:31:54.039Z,59.17
2019-03-19T20:34:20.604Z,58.84
2019-03-19T20:36:48.314Z,58.67
2019-03-19T20:39:16.108Z,59.60
2019-03-19T20:41:42.885Z,59.98
2019-03-19T20:44:09.769Z,58.86
2019-03-19T20:46:36.571Z,58.96
2019-03-19T20:49:04.439Z,59.00
2019-03-19T20:51:31.398Z,59.04
2019-03-19T20:53:58.184Z,58.94
2019-03-19T20:56:25.067Z,58.90
2019-03-19T20:58:51.726Z,59.00
2019-03-19T21:01:18.674Z,59.86
2019-03-19T21:03:45.461Z,60.09
2019-03-19T21:06:12.335Z,60.01
2019-03-19T21:08:39.245Z,60.37
2019-03-19T21:11:06.016Z,59.98
2019-03-19T21:13:32.815Z,60.65
2019-03-19T21:15:59.495Z,60.69
2019-03-19T21:18:27.368Z,60.73
2019-03-19T21:20:54.136Z,61.30
2019-03-19T21:23:20.873Z,60.98
2019-03-19T21:25:47.583Z,60.82
2019-03-19T21:28:14.732Z,60.44
2019-03-19T21:30:41.627Z,60.60
2019-03-19T21:33:08.480Z,60.75
2019-03-19T21:35:36.182Z,61.27
2019-03-19T21:38:03.104Z,62.05
2019-03-19T21:40:29.951Z,61.68
2019-03-19T21:42:56.763Z,62.60
2019-03-19T21:45:23.572Z,62.57
2019-03-19T21:47:50.385Z,63.24
2019-03-19T21:50:17.223Z,63.24
2019-03-19T21:52:44.365Z,63.46
2019-03-19T21:55:14.041Z,63.38
2019-03-19T21:57:42.798Z,63.97
2019-03-19T22:00:12.102Z,64.51
2019-03-19T22:02:38.960Z,64.47
2019-03-19T22:05:05.923Z,65.08
2019-03-19T22:07:32.728Z,65.24
2019-03-19T22:09:59.468Z,65.14
2019-03-19T22:12:26.340Z,65.72
2019-03-19T22:14:53.063Z,65.93
2019-03-19T22:17:19.812Z,65.77
2019-03-19T22:19:46.823Z,66.43
2019-03-19T22:22:13.512Z,67.15
2019-03-19T22:24:40.283Z,67.35
2019-03-19T22:27:07.092Z,67.69
2019-03-19T22:29:33.756Z,67.89
2019-03-19T22:32:00.316Z,67.80
2019-03-19T22:34:27.188Z,68.62
2019-03-19T22:36:53.949Z,68.76
2019-03-19T22:39:21.719Z,69.04
2019-03-19T22:41:48.415Z,69.10
2019-03-19T22:44:15.135Z,68.34
2019-03-19T22:46:43.845Z,70.02
2019-03-19T22:49:10.608Z,70.32
2019-03-19T22:51:37.544Z,70.37
2019-03-19T22:54:04.262Z,70.17
2019-03-19T22:56:31.013Z,70.25
2019-03-19T22:58:57.534Z,70.05
2019-03-19T23:01:24.222Z,70.77
2019-03-19T23:03:50.841Z,70.74
2019-03-19T23:06:17.385Z,70.68
2019-03-19T23:08:43.942Z,71.40
2019-03-19T23:11:10.613Z,71.14
2019-03-19T23:13:37.299Z,70.76
2019-03-19T23:16:04.293Z,70.78
2019-03-19T23:18:31.004Z,70.97
2019-03-19T23:20:57.658Z,71.01
2019-03-19T23:23:24.292Z,70.90
2019-03-19T23:26:12.407Z,70.78
2019-03-19T23:28:39.062Z,70.57
2019-03-19T23:31:07.275Z,70.96
2019-03-19T23:33:34.027Z,71.24
2019-03-19T23:36:00.787Z,71.07
2019-03-19T23:38:27.425Z,71.25
2019-03-19T23:40:54.077Z,71.25
2019-03-19T23:43:20.802Z,71.56
2019-03-19T23:45:47.372Z,72.12
2019-03-19T23:48:14.053Z,72.48
2019-03-19T23:50:40.683Z,72.70
2019-03-19T23:53:07.461Z,72.70
2019-03-19T23:55:34.112Z,72.64
2019-03-19T23:58:00.737Z,72.11
